createdAt,value
2022-12-19T00:01:31.003Z,99.51
2022-12-19T00:04:02.359Z,99.59
2022-12-19T00:06:41.361Z,99.79
2022-12-19T00:09:13.288Z,99.73
2022-12-19T00:11:42.534Z,99.65
2022-12-19T00:14:11.973Z,99.53
2022-12-19T00:16:40.226Z,99.75
2022-12-19T00:19:10.716Z,99.43
2022-12-19T00:21:39.442Z,99.21
2022-12-19T00:24:20.024Z,99.32
2022-12-19T00:26:50.581Z,99.28
2022-12-19T00:29:18.905Z,99.67
2022-12-19T00:31:47.116Z,99.31
2022-12-19T00:34:15.619Z,99.35
2022-12-19T00:36:44.121Z,99.38
2022-12-19T00:39:12.271Z,99.45
2022-12-19T00:41:43.125Z,99.62
2022-12-19T00:44:14.592Z,99.27
2022-12-19T00:46:44.560Z,99.35
2022-12-19T00:49:21.413Z,99.46
2022-12-19T00:51:49.838Z,99.20
2022-12-19T00:54:18.724Z,99.46
2022-12-19T00:56:47.246Z,99.08
2022-12-19T00:59:15.477Z,99.29
2022-12-19T01:01:47.152Z,99.16
2022-12-19T01:04:38.261Z,99.35
2022-12-19T01:07:08.305Z,99.27
2022-12-19T01:09:37.189Z,99.21
2022-12-19T01:12:25.854Z,99.40
2022-12-19T01:15:03.992Z,99.27
2022-12-19T01:17:37.045Z,99.30
2022-12-19T01:20:20.227Z,98.95
2022-12-19T01:23:00.226Z,99.14
2022-12-19T01:25:29.099Z,99.22
2022-12-19T01:27:58.265Z,99.11
2022-12-19T01:30:27.731Z,99.08
2022-12-19T01:32:58.184Z,99.18
2022-12-19T01:35:26.711Z,98.88
2022-12-19T01:38:06.098Z,98.98
2022-12-19T01:40:37.675Z,99.17
2022-12-19T01:43:06.885Z,98.90
2022-12-19T01:45:43.653Z,99.17
2022-12-19T01:48:32.558Z,98.91
2022-12-19T01:51:04.361Z,98.68
2022-12-19T01:53:45.766Z,99.08
2022-12-19T01:56:28.539Z,99.04
2022-12-19T01:59:05.656Z,98.76
2022-12-19T02:01:35.928Z,99.01
2022-12-19T02:04:08.022Z,99.10
2022-12-19T02:06:38.581Z,98.83
2022-12-19T02:09:07.112Z,98.95
2022-12-19T02:11:35.496Z,98.90
2022-12-19T02:14:04.043Z,98.82
2022-12-19T02:16:48.978Z,98.91
2022-12-19T02:20:06.257Z,98.81
2022-12-19T02:22:53.648Z,98.76
2022-12-19T02:25:59.033Z,99.08
2022-12-19T02:28:39.345Z,98.95
2022-12-19T02:31:21.668Z,98.78
2022-12-19T02:34:21.691Z,98.85
2022-12-19T02:37:16.329Z,98.89
2022-12-19T02:39:55.564Z,98.55
2022-12-19T02:42:30.699Z,98.76
2022-12-19T02:45:02.784Z,98.62
2022-12-19T02:47:33.883Z,98.77
2022-12-19T02:50:03.368Z,98.46
2022-12-19T02:52:31.773Z,98.29
2022-12-19T02:55:08.960Z,98.39
2022-12-19T02:57:36.994Z,98.30
2022-12-19T03:00:05.132Z,98.33
2022-12-19T03:03:00.621Z,98.35
2022-12-19T03:05:35.733Z,98.55
2022-12-19T03:08:28.837Z,98.31
2022-12-19T03:11:07.828Z,98.25
2022-12-19T03:13:40.643Z,97.95
2022-12-19T03:16:11.733Z,98.13
2022-12-19T03:18:40.325Z,98.13
2022-12-19T03:21:25.643Z,98.03
2022-12-19T03:23:55.742Z,98.17
2022-12-19T03:26:28.235Z,97.82
2022-12-19T03:29:09.210Z,98.05
2022-12-19T03:31:39.970Z,97.89
2022-12-19T03:34:18.847Z,98.03
2022-12-19T03:36:52.803Z,97.58
2022-12-19T03:39:23.522Z,97.87
2022-12-19T03:42:31.401Z,97.92
2022-12-19T03:45:02.248Z,97.56
2022-12-19T03:47:47.645Z,97.95
2022-12-19T03:50:16.021Z,97.75
2022-12-19T03:52:59.017Z,97.50
2022-12-19T03:55:50.326Z,97.38
2022-12-19T03:58:28.426Z,97.53
2022-12-19T04:00:58.415Z,97.78
2022-12-19T04:03:29.181Z,97.74
2022-12-19T04:06:00.769Z,97.56
2022-12-19T04:08:32.133Z,97.69
2022-12-19T04:11:08.098Z,97.70
2022-12-19T04:13:47.850Z,97.41
2022-12-19T04:17:03.142Z,97.64
2022-12-19T04:19:42.472Z,97.66
2022-12-19T04:22:19.942Z,97.54
2022-12-19T04:24:50.378Z,97.42
2022-12-19T04:27:20.771Z,97.17
2022-12-19T04:29:53.938Z,97.30
2022-12-19T04:32:24.746Z,97.50
2022-12-19T04:34:53.140Z,97.49
2022-12-19T04:37:21.461Z,97.39
2022-12-19T04:39:49.534Z,97.20
2022-12-19T04:42:17.640Z,97.28
2022-12-19T04:44:45.686Z,97.35
2022-12-19T04:47:14.431Z,97.54
2022-12-19T04:49:42.502Z,97.26
2022-12-19T04:52:10.953Z,97.18
2022-12-19T04:54:39.562Z,97.34
2022-12-19T04:57:08.055Z,97.21
2022-12-19T04:59:36.643Z,97.39
2022-12-19T05:02:04.938Z,97.24
2022-12-19T05:04:33.292Z,97.43
2022-12-19T05:07:01.395Z,97.23
2022-12-19T05:09:29.468Z,97.36
2022-12-19T05:11:57.662Z,97.46
2022-12-19T05:14:26.000Z,97.34
2022-12-19T05:17:00.372Z,97.11
2022-12-19T05:19:29.624Z,97.20
2022-12-19T05:21:57.715Z,97.20
2022-12-19T05:24:25.868Z,97.30
2022-12-19T05:26:54.047Z,97.27
2022-12-19T05:29:22.955Z,97.38
2022-12-19T05:31:50.967Z,97.24
2022-12-19T05:34:19.004Z,97.34
2022-12-19T05:36:47.118Z,97.29
2022-12-19T05:39:15.278Z,96.99
2022-12-19T05:41:47.510Z,97.09
2022-12-19T05:44:17.453Z,97.02
2022-12-19T05:46:45.795Z,97.08
2022-12-19T05:49:14.303Z,96.85
2022-12-19T05:51:42.691Z,97.06
2022-12-19T05:54:10.919Z,97.15
2022-12-19T05:56:38.989Z,97.13
2022-12-19T05:59:07.166Z,97.17
2022-12-19T06:01:35.826Z,96.86
2022-12-19T06:04:04.547Z,96.99
2022-12-19T06:06:33.279Z,96.73
2022-12-19T06:09:02.000Z,96.93
2022-12-19T06:11:30.655Z,97.06
2022-12-19T06:13:58.855Z,97.18
2022-12-19T06:16:27.275Z,96.97
2022-12-19T06:18:55.415Z,96.63
2022-12-19T06:21:24.106Z,96.78
2022-12-19T06:23:52.585Z,96.81
2022-12-19T06:26:22.665Z,96.76
2022-12-19T06:28:52.844Z,97.02
2022-12-19T06:31:23.412Z,96.63
2022-12-19T06:33:52.633Z,97.12
2022-12-19T06:36:24.729Z,97.02
2022-12-19T06:38:54.920Z,96.93
2022-12-19T06:41:41.655Z,96.81
2022-12-19T06:44:12.678Z,96.90
2022-12-19T06:46:42.022Z,96.79
2022-12-19T06:49:11.785Z,96.72
2022-12-19T06:51:40.467Z,96.74
2022-12-19T06:54:12.913Z,96.97
2022-12-19T06:56:43.253Z,97.04
2022-12-19T06:59:14.097Z,97.07
2022-12-19T07:01:43.663Z,97.12
2022-12-19T07:04:18.857Z,96.95
2022-12-19T07:06:50.103Z,96.88
2022-12-19T07:09:18.780Z,97.22
2022-12-19T07:11:46.975Z,97.17
2022-12-19T07:14:19.225Z,97.13
2022-12-19T07:16:49.185Z,97.13
2022-12-19T07:19:18.708Z,97.16
2022-12-19T07:21:47.351Z,97.20
2022-12-19T07:24:16.252Z,97.02
2022-12-19T07:26:45.225Z,97.03
2022-12-19T07:29:14.380Z,97.11
2022-12-19T07:31:43.018Z,97.22
2022-12-19T07:34:14.638Z,97.14
2022-12-19T07:36:42.773Z,97.36
2022-12-19T07:39:11.247Z,96.96
2022-12-19T07:41:39.989Z,97.05
2022-12-19T07:44:08.500Z,97.26
2022-12-19T07:46:36.846Z,97.31
2022-12-19T07:49:08.557Z,97.35
2022-12-19T07:51:37.531Z,97.00
2022-12-19T07:54:06.399Z,97.08
2022-12-19T07:56:35.490Z,97.21
2022-12-19T07:59:04.293Z,97.05
2022-12-19T08:01:37.328Z,96.96
2022-12-19T08:04:05.989Z,97.09
2022-12-19T08:06:40.615Z,97.02
2022-12-19T08:09:09.968Z,96.76
2022-12-19T08:11:39.898Z,97.11
2022-12-19T08:14:10.787Z,96.91
2022-12-19T08:17:11.131Z,96.88
2022-12-19T08:19:28.142Z,96.97
2022-12-19T08:21:56.423Z,96.97
2022-12-19T08:24:24.915Z,97.21
2022-12-19T08:26:53.582Z,97.11
2022-12-19T08:29:22.104Z,96.74
2022-12-19T08:31:51.051Z,96.49
2022-12-19T08:34:20.464Z,96.65
2022-12-19T08:36:48.770Z,96.40
2022-12-19T08:39:16.977Z,96.39
2022-12-19T08:41:45.261Z,96.10
2022-12-19T08:44:13.528Z,95.87
2022-12-19T08:46:46.509Z,95.93
2022-12-19T08:49:19.939Z,95.84
2022-12-19T08:51:49.907Z,95.89
2022-12-19T08:54:18.946Z,95.52
2022-12-19T08:56:47.374Z,95.56
2022-12-19T08:59:30.229Z,95.66
2022-12-19T09:02:04.041Z,95.52
2022-12-19T09:05:57.368Z,95.29
2022-12-19T09:07:23.140Z,95.24
2022-12-19T09:09:51.844Z,94.58
2022-12-19T09:12:25.201Z,94.69
2022-12-19T09:14:53.451Z,94.26
2022-12-19T09:17:22.013Z,94.20
2022-12-19T09:19:50.184Z,93.67
2022-12-19T09:22:18.418Z,93.04
2022-12-19T09:24:46.883Z,93.04
2022-12-19T09:27:15.315Z,92.78
2022-12-19T09:29:44.503Z,92.59
2022-12-19T09:32:12.977Z,92.35
2022-12-19T09:34:42.022Z,91.89
2022-12-19T09:37:16.893Z,91.77
2022-12-19T09:39:47.356Z,90.50
2022-12-19T09:42:19.007Z,91.05
2022-12-19T09:44:56.908Z,91.13
2022-12-19T09:47:29.014Z,90.61
2022-12-19T09:49:59.803Z,90.91
2022-12-19T09:52:31.033Z,90.91
2022-12-19T09:55:19.434Z,90.49
2022-12-19T09:57:56.683Z,90.35
2022-12-19T10:00:35.196Z,89.57
2022-12-19T10:03:12.870Z,89.50
2022-12-19T10:06:30.239Z,89.52
2022-12-19T10:09:10.046Z,89.46
2022-12-19T10:12:45.022Z,89.15
2022-12-19T10:14:49.125Z,88.43
2022-12-19T10:17:27.236Z,88.47
2022-12-19T10:20:34.363Z,88.06
2022-12-19T10:23:21.630Z,87.39
2022-12-19T10:26:13.096Z,87.38
2022-12-19T10:28:58.692Z,87.64
2022-12-19T10:31:52.004Z,87.75
2022-12-19T10:34:34.000Z,87.78
2022-12-19T10:37:40.993Z,87.82
2022-12-19T10:40:31.101Z,87.53
2022-12-19T10:43:32.787Z,87.28
2022-12-19T10:46:13.771Z,87.22
2022-12-19T10:48:42.746Z,87.15
2022-12-19T10:51:19.366Z,86.87
2022-12-19T10:53:55.098Z,86.57
2022-12-19T10:56:37.197Z,85.82
2022-12-19T10:59:20.347Z,85.99
2022-12-19T11:02:00.170Z,85.59
2022-12-19T11:04:39.518Z,85.60
2022-12-19T11:07:21.495Z,85.98
2022-12-19T11:09:58.370Z,85.29
2022-12-19T11:16:05.837Z,85.44
2022-12-19T11:22:46.922Z,85.75
2022-12-19T11:29:27.747Z,84.61
2022-12-19T11:29:36.768Z,85.48
2022-12-19T11:30:39.361Z,84.57
2022-12-19T11:30:48.666Z,84.99
2022-12-19T11:33:24.391Z,84.30
2022-12-19T11:35:55.726Z,84.41
2022-12-19T11:38:42.524Z,83.53
2022-12-19T11:41:38.150Z,83.86
2022-12-19T11:44:35.578Z,83.36
2022-12-19T11:47:35.718Z,83.34
2022-12-19T11:50:15.813Z,83.40
2022-12-19T11:53:06.622Z,83.13
2022-12-19T11:55:44.695Z,83.03
2022-12-19T11:58:13.684Z,82.88
2022-12-19T12:00:58.251Z,82.66
2022-12-19T12:04:01.999Z,81.49
2022-12-19T12:06:46.438Z,82.22
2022-12-19T12:15:12.717Z,81.37
2022-12-19T12:20:35.140Z,81.31
2022-12-19T12:25:39.594Z,81.39
2022-12-19T12:31:21.173Z,81.31
2022-12-19T12:31:41.610Z,80.46
2022-12-19T12:31:46.583Z,80.35
2022-12-19T12:32:05.071Z,80.56
2022-12-19T12:35:38.191Z,80.08
2022-12-19T12:41:03.384Z,79.19
2022-12-19T12:43:43.937Z,79.33
2022-12-19T12:46:18.323Z,79.41
2022-12-19T12:49:03.910Z,79.33
2022-12-19T12:51:35.415Z,79.29
2022-12-19T12:54:12.608Z,78.68
2022-12-19T12:56:42.576Z,79.40
2022-12-19T12:59:24.822Z,78.34
2022-12-19T13:01:59.775Z,78.43
2022-12-19T13:04:54.062Z,78.64
2022-12-19T13:07:50.418Z,78.92
2022-12-19T13:10:32.045Z,78.73
2022-12-19T13:13:14.623Z,78.83
2022-12-19T13:15:48.017Z,79.10
2022-12-19T13:18:34.296Z,79.61
2022-12-19T13:21:05.936Z,79.46
2022-12-19T13:23:45.164Z,79.72
2022-12-19T13:26:50.129Z,79.16
2022-12-19T13:29:28.807Z,79.26
2022-12-19T13:32:13.496Z,79.10
2022-12-19T13:34:58.620Z,78.81
2022-12-19T13:39:57.112Z,79.18
2022-12-19T13:41:26.453Z,79.63
2022-12-19T13:44:01.251Z,79.56
2022-12-19T13:46:44.090Z,79.19
2022-12-19T13:49:34.654Z,79.37
2022-12-19T13:52:07.626Z,79.23
2022-12-19T13:54:46.819Z,79.35
2022-12-19T13:57:26.676Z,79.20
2022-12-19T14:00:01.360Z,79.90
2022-12-19T14:02:48.833Z,80.18
2022-12-19T14:05:36.066Z,80.51
2022-12-19T14:08:22.141Z,80.94
2022-12-19T14:11:45.500Z,81.20
2022-12-19T14:14:25.742Z,81.59
2022-12-19T14:17:09.606Z,82.11
2022-12-19T14:19:41.666Z,82.59
2022-12-19T14:22:20.778Z,83.16
2022-12-19T14:25:50.241Z,83.70
2022-12-19T14:28:25.550Z,84.28
2022-12-19T14:31:02.899Z,84.72
2022-12-19T14:34:35.508Z,85.16
2022-12-19T14:36:49.796Z,85.37
2022-12-19T14:39:29.649Z,85.78
2022-12-19T14:43:59.131Z,86.59
2022-12-19T14:52:25.406Z,87.14
2022-12-19T14:53:52.265Z,87.53
2022-12-19T14:54:37.845Z,88.17
2022-12-19T14:57:25.522Z,89.50
2022-12-19T15:01:08.009Z,89.75
2022-12-19T15:03:25.216Z,90.37
2022-12-19T15:06:31.529Z,90.73
2022-12-19T15:11:01.070Z,91.29
2022-12-19T15:14:48.491Z,91.68
2022-12-19T15:15:37.661Z,92.21
2022-12-19T15:18:26.498Z,92.88
2022-12-19T15:20:57.504Z,93.31
2022-12-19T15:23:28.960Z,93.36
2022-12-19T15:26:03.824Z,93.70
2022-12-19T15:28:46.387Z,93.83
2022-12-19T15:31:30.200Z,94.12
2022-12-19T15:36:56.063Z,94.96
2022-12-19T15:39:28.375Z,94.98
2022-12-19T15:42:02.629Z,95.46
2022-12-19T15:44:42.476Z,96.07
2022-12-19T15:47:22.075Z,96.30
2022-12-19T15:49:50.361Z,96.68
2022-12-19T15:52:21.718Z,96.45
2022-12-19T15:54:51.116Z,97.02
2022-12-19T15:57:42.245Z,97.09
2022-12-19T16:00:23.544Z,97.27
2022-12-19T16:03:23.990Z,98.44
2022-12-19T16:05:43.051Z,98.70
2022-12-19T16:08:15.074Z,98.98
2022-12-19T16:10:46.178Z,99.30
2022-12-19T16:13:29.239Z,99.68
2022-12-19T16:16:06.560Z,99.77
2022-12-19T16:18:46.418Z,99.95
2022-12-19T16:21:31.477Z,99.92
2022-12-19T16:24:02.418Z,99.94
2022-12-19T16:26:38.840Z,100.00
2022-12-19T16:29:37.024Z,100.00
2022-12-19T16:32:13.660Z,100.00
2022-12-19T16:34:42.253Z,100.00
2022-12-19T16:37:17.291Z,100.00
2022-12-19T16:39:46.156Z,100.00
2022-12-19T16:42:16.759Z,100.00
2022-12-19T16:44:49.354Z,100.00
2022-12-19T16:47:18.552Z,100.00
2022-12-19T16:49:48.976Z,100.00
2022-12-19T16:52:18.006Z,100.00
2022-12-19T16:54:46.647Z,100.00
2022-12-19T16:57:20.263Z,100.00
2022-12-19T16:59:52.959Z,100.00
2022-12-19T17:02:47.690Z,100.00
2022-12-19T17:05:29.958Z,100.00
2022-12-19T17:08:15.802Z,100.00
2022-12-19T17:11:01.712Z,100.00
2022-12-19T17:13:41.089Z,100.00
2022-12-19T17:16:41.654Z,100.00
2022-12-19T17:19:51.148Z,100.00
2022-12-19T17:22:21.653Z,100.00
2022-12-19T17:24:51.496Z,100.00
2022-12-19T17:27:22.454Z,100.00
2022-12-19T17:29:50.745Z,100.00
2022-12-19T17:32:23.927Z,100.00
2022-12-19T17:34:53.084Z,100.00
2022-12-19T17:37:22.826Z,100.00
2022-12-19T17:39:51.372Z,100.00
2022-12-19T17:42:30.868Z,100.00
2022-12-19T17:45:04.116Z,100.00
2022-12-19T17:47:32.513Z,100.00
2022-12-19T17:50:00.712Z,100.00
2022-12-19T17:52:32.259Z,100.00
2022-12-19T17:55:28.328Z,100.00
2022-12-19T17:58:00.512Z,100.00
2022-12-19T18:00:32.959Z,100.00
2022-12-19T18:03:11.270Z,100.00
2022-12-19T18:05:41.086Z,100.00
2022-12-19T18:08:30.734Z,100.00
2022-12-19T18:11:04.648Z,100.00
2022-12-19T18:13:33.780Z,100.00
2022-12-19T18:16:12.443Z,100.00
2022-12-19T18:18:46.277Z,100.00
2022-12-19T18:21:18.171Z,100.00
2022-12-19T18:23:46.746Z,100.00
2022-12-19T18:26:20.258Z,100.00
2022-12-19T18:28:57.928Z,100.00
2022-12-19T18:31:26.751Z,100.00
2022-12-19T18:34:07.295Z,100.00
2022-12-19T18:36:46.728Z,100.00
2022-12-19T18:39:26.015Z,100.00
2022-12-19T18:41:54.946Z,100.00
2022-12-19T18:44:23.633Z,100.00
2022-12-19T18:47:04.304Z,100.00
2022-12-19T18:49:36.938Z,100.00
2022-12-19T18:52:12.183Z,100.00
2022-12-19T18:54:40.677Z,100.00
2022-12-19T18:57:12.263Z,100.00
2022-12-19T18:59:40.762Z,100.00
2022-12-19T19:02:28.550Z,100.00
2022-12-19T19:05:00.003Z,100.00
2022-12-19T19:07:28.738Z,100.00
2022-12-19T19:09:59.847Z,100.00
2022-12-19T19:12:28.338Z,100.00
2022-12-19T19:14:56.753Z,100.00
2022-12-19T19:17:32.605Z,100.00
2022-12-19T19:20:13.374Z,100.00
2022-12-19T19:22:52.397Z,100.00
2022-12-19T19:25:20.907Z,100.00
2022-12-19T19:27:50.248Z,100.00
2022-12-19T19:30:22.357Z,100.00
2022-12-19T19:32:57.856Z,100.00
2022-12-19T19:35:27.601Z,100.00
2022-12-19T19:38:07.006Z,100.00
2022-12-19T19:40:37.197Z,100.00
2022-12-19T19:43:07.284Z,100.00
2022-12-19T19:45:46.491Z,100.00
2022-12-19T19:48:15.588Z,100.00
2022-12-19T19:50:43.977Z,100.00
2022-12-19T19:53:12.608Z,100.00
2022-12-19T19:55:40.927Z,100.00
2022-12-19T19:58:11.817Z,100.00
2022-12-19T20:00:40.589Z,100.00
2022-12-19T20:03:22.303Z,100.00
2022-12-19T20:06:01.414Z,100.00
2022-12-19T20:08:58.262Z,100.00
2022-12-19T20:11:29.082Z,100.00
2022-12-19T20:14:39.234Z,100.00
2022-12-19T20:17:30.519Z,100.00
2022-12-19T20:20:00.336Z,100.00
2022-12-19T20:22:40.853Z,100.00
2022-12-19T20:25:18.287Z,100.00
2022-12-19T20:28:01.549Z,100.00
2022-12-19T20:30:38.595Z,100.00
2022-12-19T20:33:07.743Z,100.00
2022-12-19T20:35:37.366Z,100.00
2022-12-19T20:38:11.341Z,100.00
2022-12-19T20:40:40.146Z,100.00
2022-12-19T20:43:11.943Z,100.00
2022-12-19T20:45:40.401Z,100.00
2022-12-19T20:48:08.818Z,100.00
2022-12-19T20:50:43.166Z,100.00
2022-12-19T20:53:12.107Z,100.00
2022-12-19T20:55:40.581Z,100.00
2022-12-19T20:58:21.161Z,100.00
2022-12-19T21:01:06.567Z,100.00
2022-12-19T21:03:46.820Z,100.00
2022-12-19T21:06:20.136Z,100.00
2022-12-19T21:08:52.923Z,100.00
2022-12-19T21:11:24.272Z,100.00
2022-12-19T21:13:56.871Z,100.00
2022-12-19T21:16:31.492Z,100.00
2022-12-19T21:19:03.402Z,100.00
2022-12-19T21:21:32.465Z,100.00
2022-12-19T21:24:02.340Z,100.00
2022-12-19T21:26:46.579Z,100.00
2022-12-19T21:29:15.490Z,100.00
2022-12-19T21:31:45.414Z,100.00
2022-12-19T21:34:16.839Z,100.00
2022-12-19T21:36:45.180Z,100.00
2022-12-19T21:39:19.447Z,100.00
2022-12-19T21:41:50.884Z,100.00
2022-12-19T21:44:22.604Z,100.00
2022-12-19T21:47:01.364Z,100.00
2022-12-19T21:49:30.102Z,100.00
2022-12-19T21:51:58.685Z,100.00
2022-12-19T21:54:29.467Z,100.00
2022-12-19T21:56:57.894Z,100.00
2022-12-19T21:59:26.369Z,100.00
2022-12-19T22:01:55.683Z,100.00
2022-12-19T22:04:42.165Z,100.00
2022-12-19T22:07:14.790Z,100.00
2022-12-19T22:09:44.134Z,100.00
2022-12-19T22:12:13.196Z,100.00
2022-12-19T22:14:45.985Z,100.00
2022-12-19T22:17:24.888Z,100.00
2022-12-19T22:20:02.260Z,100.00
2022-12-19T22:22:33.662Z,100.00
2022-12-19T22:25:05.287Z,100.00
2022-12-19T22:27:34.013Z,100.00
2022-12-19T22:30:08.739Z,100.00
2022-12-19T22:32:39.930Z,100.00
2022-12-19T22:35:08.805Z,100.00
2022-12-19T22:37:37.618Z,100.00
2022-12-19T22:40:06.827Z,100.00
2022-12-19T22:42:35.099Z,100.00
2022-12-19T22:45:04.447Z,100.00
2022-12-19T22:47:32.596Z,100.00
2022-12-19T22:50:00.967Z,100.00
2022-12-19T22:52:30.923Z,100.00
2022-12-19T22:54:59.519Z,100.00
2022-12-19T22:57:28.056Z,100.00
2022-12-19T22:59:56.307Z,100.00
2022-12-19T23:02:24.718Z,100.00
2022-12-19T23:04:53.050Z,100.00
2022-12-19T23:07:21.286Z,100.00
2022-12-19T23:09:49.392Z,100.00
2022-12-19T23:12:17.616Z,100.00
2022-12-19T23:14:45.754Z,100.00
2022-12-19T23:17:13.926Z,100.00
2022-12-19T23:19:42.172Z,100.00
2022-12-19T23:22:10.341Z,100.00
2022-12-19T23:24:38.880Z,100.00
2022-12-19T23:27:07.111Z,100.00
2022-12-19T23:29:35.616Z,100.00
2022-12-19T23:32:03.921Z,100.00
2022-12-19T23:34:32.045Z,100.00
2022-12-19T23:37:10.868Z,100.00
2022-12-19T23:39:40.054Z,99.95
2022-12-19T23:42:08.183Z,99.98
2022-12-19T23:44:36.590Z,99.33
2022-12-19T23:47:04.711Z,98.90
2022-12-19T23:49:33.942Z,99.03
2022-12-19T23:52:02.047Z,98.75
2022-12-19T23:54:30.491Z,98.89
2022-12-19T23:56:58.615Z,98.50
2022-12-19T23:59:26.972Z,98.47
